createdAt,value
2022-09-12T00:02:20.265Z,98537.66
2022-09-12T00:05:23.086Z,98540.34
2022-09-12T00:08:24.960Z,98545.53
2022-09-12T00:11:27.599Z,98541.59
2022-09-12T00:14:29.999Z,98548.00
2022-09-12T00:17:34.630Z,98540.13
2022-09-12T00:20:36.416Z,98535.38
2022-09-12T00:23:38.220Z,98529.16
2022-09-12T00:26:40.100Z,98522.94
2022-09-12T00:29:41.894Z,98521.06
2022-09-12T00:32:43.760Z,98519.63
2022-09-12T00:35:52.876Z,98517.97
2022-09-12T00:38:54.886Z,98521.47
2022-09-12T00:41:56.724Z,98506.34
2022-09-12T00:44:58.509Z,98516.31
2022-09-12T00:48:04.479Z,98508.63
2022-09-12T00:51:06.446Z,98510.31
2022-09-12T00:54:17.111Z,98503.47
2022-09-12T00:57:23.826Z,98493.72
2022-09-12T01:00:26.995Z,98504.28
2022-09-12T01:03:29.126Z,98497.88
2022-09-12T01:06:37.204Z,98488.75
2022-09-12T01:09:39.932Z,98488.75
2022-09-12T01:12:43.654Z,98485.00
2022-09-12T01:15:45.932Z,98489.97
2022-09-12T01:19:06.334Z,98488.13
2022-09-12T01:22:26.603Z,98489.56
2022-09-12T01:25:56.059Z,98489.97
2022-09-12T01:29:26.751Z,98496.75
2022-09-12T01:32:36.066Z,98480.19
2022-09-12T01:36:08.814Z,98479.56
2022-09-12T01:39:13.439Z,98482.03
2022-09-12T01:42:29.707Z,98480.78
2022-09-12T01:46:04.979Z,98477.25
2022-09-12T01:49:27.112Z,98474.97
2022-09-12T01:52:39.623Z,98480.13
2022-09-12T01:55:51.366Z,98466.25
2022-09-12T01:59:20.754Z,98469.34
2022-09-12T02:02:28.065Z,98462.94
2022-09-12T02:05:34.894Z,98461.28
2022-09-12T02:08:49.161Z,98462.31
2022-09-12T02:11:56.028Z,98460.84
2022-09-12T02:15:03.552Z,98466.63
2022-09-12T02:18:06.740Z,98461.84
2022-09-12T02:21:09.204Z,98463.28
2022-09-12T02:24:14.602Z,98455.63
2022-09-12T02:27:24.870Z,98458.31
2022-09-12T02:30:31.061Z,98458.72
2022-09-12T02:33:45.054Z,98453.97
2022-09-12T02:36:55.702Z,98445.50
2022-09-12T02:39:58.921Z,98436.41
2022-09-12T02:43:03.148Z,98439.50
2022-09-12T02:46:08.330Z,98449.03
2022-09-12T02:49:10.286Z,98459.38
2022-09-12T02:52:12.330Z,98469.13
2022-09-12T02:55:14.931Z,98457.75
2022-09-12T02:58:20.039Z,98457.56
2022-09-12T03:01:35.962Z,98461.50
2022-09-12T03:04:51.660Z,98466.25
2022-09-12T03:08:12.177Z,98467.09
2022-09-12T03:11:34.167Z,98467.72
2022-09-12T03:14:40.754Z,98466.47
2022-09-12T03:18:00.591Z,98459.88
2022-09-12T03:21:05.757Z,98460.69
2022-09-12T03:24:16.166Z,98454.09
2022-09-12T03:27:50.294Z,98458.44
2022-09-12T03:30:54.399Z,98452.22
2022-09-12T03:33:56.338Z,98456.56
2022-09-12T03:36:58.259Z,98450.97
2022-09-12T03:40:01.075Z,98449.13
2022-09-12T03:43:03.521Z,98439.41
2022-09-12T03:46:05.543Z,98447.25
2022-09-12T03:49:07.323Z,98446.84
2022-09-12T03:52:09.077Z,98443.13
2022-09-12T03:55:11.198Z,98445.00
2022-09-12T03:58:13.090Z,98454.31
2022-09-12T04:01:17.674Z,98450.00
2022-09-12T04:04:19.625Z,98448.56
2022-09-12T04:07:21.357Z,98448.16
2022-09-12T04:10:23.170Z,98454.78
2022-09-12T04:13:24.885Z,98453.53
2022-09-12T04:16:26.724Z,98449.59
2022-09-12T04:19:28.771Z,98451.47
2022-09-12T04:22:32.005Z,98445.47
2022-09-12T04:25:33.993Z,98451.06
2022-09-12T04:28:37.270Z,98452.91
2022-09-12T04:31:39.516Z,98451.47
2022-09-12T04:34:41.843Z,98453.75
2022-09-12T04:37:44.288Z,98454.78
2022-09-12T04:40:46.155Z,98456.84
2022-09-12T04:43:52.502Z,98450.00
2022-09-12T04:46:54.196Z,98455.59
2022-09-12T04:49:56.045Z,98450.41
2022-09-12T04:52:57.845Z,98448.13
2022-09-12T04:56:07.290Z,98457.84
2022-09-12T04:59:10.181Z,98451.59
2022-09-12T05:02:12.109Z,98444.53
2022-09-12T05:05:13.924Z,98440.19
2022-09-12T05:08:15.733Z,98436.00
2022-09-12T05:11:25.582Z,98441.59
2022-09-12T05:14:32.503Z,98437.44
2022-09-12T05:17:34.295Z,98439.31
2022-09-12T05:20:36.170Z,98431.63
2022-09-12T05:23:38.186Z,98434.50
2022-09-12T05:26:39.967Z,98429.28
2022-09-12T05:29:43.077Z,98422.25
2022-09-12T05:32:44.853Z,98417.25
2022-09-12T05:35:52.528Z,98413.69
2022-09-12T05:38:54.488Z,98409.78
2022-09-12T05:41:56.443Z,98418.25
2022-09-12T05:44:58.632Z,98418.25
2022-09-12T05:48:00.456Z,98425.09
2022-09-12T05:51:07.174Z,98419.50
2022-09-12T05:54:11.105Z,98422.81
2022-09-12T05:57:12.873Z,98420.94
2022-09-12T06:00:15.418Z,98416.75
2022-09-12T06:03:19.038Z,98415.50
2022-09-12T06:06:23.322Z,98401.97
2022-09-12T06:09:25.735Z,98414.59
2022-09-12T06:12:30.025Z,98409.53
2022-09-12T06:15:32.960Z,98407.41
2022-09-12T06:18:35.836Z,98406.53
2022-09-12T06:21:39.984Z,98419.13
2022-09-12T06:24:41.760Z,98412.19
2022-09-12T06:27:43.601Z,98416.97
2022-09-12T06:30:45.411Z,98421.13
2022-09-12T06:33:50.451Z,98422.97
2022-09-12T06:36:52.149Z,98414.72
2022-09-12T06:39:54.078Z,98417.91
2022-09-12T06:42:55.882Z,98416.09
2022-09-12T06:46:08.802Z,98410.78
2022-09-12T06:49:11.143Z,98410.75
2022-09-12T06:52:13.389Z,98410.41
2022-09-12T06:55:19.438Z,98419.22
2022-09-12T06:58:21.992Z,98423.34
2022-09-12T07:01:26.726Z,98435.13
2022-09-12T07:04:29.146Z,98429.25
2022-09-12T07:07:34.356Z,98432.78
2022-09-12T07:10:36.011Z,98421.84
2022-09-12T07:13:38.290Z,98416.66
2022-09-12T07:16:40.184Z,98425.25
2022-09-12T07:19:41.941Z,98430.16
2022-09-12T07:22:43.689Z,98435.13
2022-09-12T07:25:52.059Z,98432.78
2022-09-12T07:29:03.947Z,98429.94
2022-09-12T07:32:15.206Z,98431.44
2022-09-12T07:35:16.852Z,98422.50
2022-09-12T07:38:18.601Z,98436.59
2022-09-12T07:41:21.111Z,98435.41
2022-09-12T07:44:22.969Z,98429.03
2022-09-12T07:47:24.684Z,98427.16
2022-09-12T07:50:26.870Z,98422.22
2022-09-12T07:53:34.109Z,98423.72
2022-09-12T07:56:39.237Z,98422.53
2022-09-12T07:59:52.398Z,98417.25
2022-09-12T08:02:55.221Z,98411.84
2022-09-12T08:06:03.196Z,98414.69
2022-09-12T08:09:05.222Z,98411.00
2022-09-12T08:12:07.081Z,98403.72
2022-09-12T08:15:09.516Z,98394.31
2022-09-12T08:18:11.952Z,98407.63
2022-09-12T08:21:17.985Z,98404.31
2022-09-12T08:24:20.341Z,98401.16
2022-09-12T08:27:22.501Z,98395.59
2022-09-12T08:30:24.093Z,98396.66
2022-09-12T08:33:27.581Z,98396.19
2022-09-12T08:36:29.825Z,98402.06
2022-09-12T08:39:32.774Z,98404.19
2022-09-12T08:42:46.644Z,98405.47
2022-09-12T08:45:54.430Z,98399.94
2022-09-12T08:48:58.408Z,98400.31
2022-09-12T08:52:03.686Z,98402.47
2022-09-12T08:55:07.939Z,98395.28
2022-09-12T08:58:12.877Z,98398.13
2022-09-12T09:01:35.831Z,98402.75
2022-09-12T09:04:41.698Z,98411.47
2022-09-12T09:08:10.756Z,98422.09
2022-09-12T09:11:19.667Z,98430.94
2022-09-12T09:14:50.185Z,98419.53
2022-09-12T09:17:58.670Z,98413.31
2022-09-12T09:21:20.675Z,98421.19
2022-09-12T09:24:26.852Z,98426.50
2022-09-12T09:27:40.910Z,98423.66
2022-09-12T09:30:43.267Z,98419.63
2022-09-12T09:33:48.193Z,98426.09
2022-09-12T09:36:52.241Z,98412.41
2022-09-12T09:40:07.232Z,98411.59
2022-09-12T09:43:18.470Z,98409.81
2022-09-12T09:46:20.292Z,98407.19
2022-09-12T09:49:22.229Z,98415.09
2022-09-12T09:52:30.518Z,98410.50
2022-09-12T09:55:37.889Z,98409.19
2022-09-12T09:58:39.805Z,98411.41
2022-09-12T10:02:08.277Z,98415.19
2022-09-12T10:05:16.768Z,98412.00
2022-09-12T10:08:26.466Z,98396.66
2022-09-12T10:11:28.505Z,98399.59
2022-09-12T10:14:40.535Z,98407.59
2022-09-12T10:17:46.763Z,98415.84
2022-09-12T10:20:48.507Z,98416.41
2022-09-12T10:24:21.278Z,98415.34
2022-09-12T10:27:24.912Z,98412.38
2022-09-12T10:30:28.672Z,98420.06
2022-09-12T10:34:02.938Z,98424.06
2022-09-12T10:37:06.839Z,98417.88
2022-09-12T10:40:22.264Z,98409.22
2022-09-12T10:43:34.455Z,98406.59
2022-09-12T10:46:36.277Z,98406.19
2022-09-12T10:49:40.386Z,98401.09
2022-09-12T10:52:42.042Z,98400.94
2022-09-12T10:55:53.534Z,98393.38
2022-09-12T10:58:55.181Z,98393.56
2022-09-12T11:01:56.999Z,98402.53
2022-09-12T11:05:08.116Z,98401.19
2022-09-12T11:08:13.021Z,98411.22
2022-09-12T11:11:20.891Z,98402.50
2022-09-12T11:14:48.873Z,98400.47
2022-09-12T11:18:10.171Z,98385.38
2022-09-12T11:21:21.053Z,98387.28
2022-09-12T11:24:22.740Z,98397.53
2022-09-12T11:29:00.265Z,98395.00
2022-09-12T11:32:11.387Z,98396.19
2022-09-12T11:35:17.533Z,98393.00
2022-09-12T11:38:21.012Z,98398.13
2022-09-12T11:41:42.909Z,98399.41
2022-09-12T11:44:49.824Z,98394.09
2022-09-12T11:47:56.155Z,98398.28
2022-09-12T11:50:58.442Z,98390.00
2022-09-12T11:54:04.594Z,98387.97
2022-09-12T11:57:18.636Z,98386.34
2022-09-12T12:00:23.427Z,98391.66
2022-09-12T12:03:31.179Z,98399.06
2022-09-12T12:06:44.093Z,98397.16
2022-09-12T12:09:51.212Z,98391.13
2022-09-12T12:14:51.052Z,98395.19
2022-09-12T12:18:26.094Z,98399.09
2022-09-12T12:21:36.774Z,98398.06
2022-09-12T12:25:12.281Z,98394.81
2022-09-12T12:28:44.348Z,98398.31
2022-09-12T12:32:04.396Z,98409.69
2022-09-12T12:35:59.630Z,98403.72
2022-09-12T12:39:33.101Z,98394.75
2022-09-12T12:42:34.871Z,98383.34
2022-09-12T12:45:47.901Z,98380.44
2022-09-12T12:49:03.654Z,98386.69
2022-09-12T12:52:05.552Z,98384.72
2022-09-12T12:55:17.539Z,98383.75
2022-09-12T12:58:36.343Z,98381.81
2022-09-12T13:01:44.502Z,98372.13
2022-09-12T13:04:46.630Z,98370.44
2022-09-12T13:07:56.504Z,98377.88
2022-09-12T13:11:07.529Z,98373.69
2022-09-12T13:14:37.125Z,98375.91
2022-09-12T13:17:43.153Z,98375.59
2022-09-12T13:21:10.123Z,98365.28
2022-09-12T13:24:17.179Z,98352.72
2022-09-12T13:27:25.499Z,98350.75
2022-09-12T13:30:29.332Z,98352.94
2022-09-12T13:33:45.546Z,98347.16
2022-09-12T13:37:11.389Z,98340.94
2022-09-12T13:40:13.204Z,98345.00
2022-09-12T13:43:18.631Z,98346.94
2022-09-12T13:46:30.481Z,98343.75
2022-09-12T13:49:37.067Z,98350.63
2022-09-12T13:52:39.509Z,98344.91
2022-09-12T13:55:43.009Z,98342.63
2022-09-12T13:58:57.060Z,98342.91
2022-09-12T14:01:58.954Z,98337.38
2022-09-12T14:05:13.197Z,98344.38
2022-09-12T14:08:15.374Z,98353.03
2022-09-12T14:11:28.936Z,98359.25
2022-09-12T14:14:42.183Z,98367.59
2022-09-12T14:17:51.950Z,98366.84
2022-09-12T14:20:57.087Z,98371.06
2022-09-12T14:24:01.561Z,98355.69
2022-09-12T14:27:05.058Z,98358.19
2022-09-12T14:30:32.079Z,98352.19
2022-09-12T14:33:48.008Z,98345.53
2022-09-12T14:36:53.954Z,98356.03
2022-09-12T14:39:56.255Z,98351.75
2022-09-12T14:43:01.195Z,98346.94
2022-09-12T14:46:28.578Z,98349.97
2022-09-12T14:49:37.354Z,98345.84
2022-09-12T14:52:40.257Z,98349.81
2022-09-12T14:55:47.436Z,98349.97
2022-09-12T14:58:50.678Z,98353.75
2022-09-12T15:02:21.223Z,98350.47
2022-09-12T15:05:27.064Z,98338.59
2022-09-12T15:08:30.363Z,98328.06
2022-09-12T15:11:33.661Z,98327.09
2022-09-12T15:14:35.612Z,98331.13
2022-09-12T15:17:37.466Z,98328.72
2022-09-12T15:20:42.566Z,98336.13
2022-09-12T15:23:52.885Z,98341.13
2022-09-12T15:26:54.834Z,98349.78
2022-09-12T15:29:57.069Z,98357.47
2022-09-12T15:33:00.179Z,98357.47
2022-09-12T15:36:02.258Z,98350.88
2022-09-12T15:39:04.311Z,98362.63
2022-09-12T15:42:06.192Z,98361.81
2022-09-12T15:45:26.035Z,98360.31
2022-09-12T15:48:28.981Z,98365.19
2022-09-12T16:02:34.584Z,98370.34
2022-09-12T16:05:36.726Z,98373.56
2022-09-12T16:08:38.629Z,98375.31
2022-09-12T16:11:40.543Z,98369.66
2022-09-12T16:14:42.362Z,98372.63
2022-09-12T16:17:44.522Z,98375.94
2022-09-12T16:20:46.266Z,98372.63
2022-09-12T16:23:49.034Z,98367.94
2022-09-12T16:26:50.915Z,98371.31
2022-09-12T16:29:52.893Z,98373.66
2022-09-12T16:32:54.704Z,98385.69
2022-09-12T16:36:14.437Z,98387.31
2022-09-12T16:39:16.320Z,98384.00
2022-09-12T16:42:19.435Z,98391.09
2022-09-12T16:45:25.182Z,98392.84
2022-09-12T16:48:27.037Z,98396.28
2022-09-12T16:51:32.449Z,98393.94
2022-09-12T16:54:35.781Z,98395.13
2022-09-12T16:57:37.633Z,98388.75
2022-09-12T17:00:43.066Z,98386.38
2022-09-12T17:03:44.919Z,98378.50
2022-09-12T17:06:47.138Z,98383.69
2022-09-12T17:09:51.417Z,98377.56
2022-09-12T17:12:54.828Z,98370.72
2022-09-12T17:15:57.102Z,98376.84
2022-09-12T17:18:59.126Z,98372.13
2022-09-12T17:22:04.674Z,98375.66
2022-09-12T17:25:06.901Z,98367.19
2022-09-12T17:28:08.768Z,98373.78
2022-09-12T17:31:15.327Z,98378.13
2022-09-12T17:34:18.675Z,98370.59
2022-09-12T17:37:22.073Z,98373.16
2022-09-12T17:40:37.228Z,98382.94
2022-09-12T17:43:51.305Z,98384.88
2022-09-12T17:46:55.005Z,98378.28
2022-09-12T17:50:09.384Z,98377.69
2022-09-12T17:53:21.510Z,98377.69
2022-09-12T17:56:24.318Z,98374.44
2022-09-12T17:59:26.429Z,98378.31
2022-09-12T18:02:32.955Z,98370.22
2022-09-12T18:05:36.605Z,98373.59
2022-09-12T18:08:38.594Z,98365.31
2022-09-12T18:11:44.170Z,98375.38
2022-09-12T18:14:46.345Z,98375.41
2022-09-12T18:17:49.046Z,98372.78
2022-09-12T18:20:53.085Z,98361.25
2022-09-12T18:24:03.141Z,98371.44
2022-09-12T18:27:07.669Z,98377.06
2022-09-12T18:30:21.436Z,98371.66
2022-09-12T18:33:29.626Z,98372.94
2022-09-12T18:36:34.598Z,98368.81
2022-09-12T18:39:48.117Z,98360.69
2022-09-12T18:42:53.063Z,98360.69
2022-09-12T18:45:57.139Z,98351.19
2022-09-12T18:49:00.152Z,98348.53
2022-09-12T18:52:02.890Z,98355.13
2022-09-12T18:55:10.967Z,98358.41
2022-09-12T18:58:12.978Z,98349.63
2022-09-12T19:01:27.098Z,98358.72
2022-09-12T19:04:29.216Z,98354.75
2022-09-12T19:07:31.817Z,98355.97
2022-09-12T19:10:34.820Z,98350.13
2022-09-12T19:13:44.153Z,98345.34
2022-09-12T19:16:46.978Z,98331.16
2022-09-12T19:19:51.514Z,98324.34
2022-09-12T19:22:56.260Z,98327.97
2022-09-12T19:26:03.887Z,98311.91
2022-09-12T19:29:07.872Z,98320.78
2022-09-12T19:32:09.793Z,98322.19
2022-09-12T19:35:13.556Z,98312.22
2022-09-12T19:38:16.003Z,98312.63
2022-09-12T19:41:19.195Z,98321.69
2022-09-12T19:44:21.132Z,98320.03
2022-09-12T19:47:25.291Z,98318.91
2022-09-12T19:50:27.658Z,98324.69
2022-09-12T19:53:31.287Z,98320.47
2022-09-12T19:56:33.247Z,98330.63
2022-09-12T19:59:35.116Z,98316.06
2022-09-12T20:02:37.198Z,98321.22
2022-09-12T20:05:42.651Z,98323.47
2022-09-12T20:08:45.898Z,98323.03
2022-09-12T20:11:47.853Z,98322.56
2022-09-12T20:14:49.685Z,98312.13
2022-09-12T20:17:57.990Z,98307.19
2022-09-12T20:21:31.648Z,98298.63
2022-09-12T20:24:33.882Z,98290.97
2022-09-12T20:27:35.696Z,98289.47
2022-09-12T20:30:37.590Z,98281.94
2022-09-12T20:33:39.551Z,98287.94
2022-09-12T20:36:42.014Z,98292.09
2022-09-12T20:39:46.825Z,98293.72
2022-09-12T20:42:52.155Z,98287.72
2022-09-12T20:45:54.262Z,98284.19
2022-09-12T20:48:56.541Z,98278.56
2022-09-12T20:51:58.300Z,98279.97
2022-09-12T20:55:00.205Z,98264.59
2022-09-12T20:58:02.009Z,98258.13
2022-09-12T21:01:07.902Z,98255.66
2022-09-12T21:04:13.053Z,98253.13
2022-09-12T21:07:17.057Z,98256.97
2022-09-12T21:10:19.330Z,98252.03
2022-09-12T21:13:21.165Z,98261.19
2022-09-12T21:16:23.699Z,98253.06
2022-09-12T21:19:25.574Z,98252.31
2022-09-12T21:22:27.470Z,98262.16
2022-09-12T21:25:30.311Z,98254.75
2022-09-12T21:28:32.181Z,98255.41
2022-09-12T21:31:34.161Z,98269.81
2022-09-12T21:34:35.972Z,98264.94
2022-09-12T21:37:37.737Z,98266.28
2022-09-12T21:40:39.511Z,98266.53
2022-09-12T21:43:41.989Z,98265.16
2022-09-12T21:46:43.893Z,98269.41
2022-09-12T21:49:45.723Z,98263.25
2022-09-12T21:52:47.726Z,98262.50
2022-09-12T21:55:49.615Z,98263.59
2022-09-12T21:58:51.909Z,98275.66
2022-09-12T22:01:54.646Z,98279.25
2022-09-12T22:04:56.517Z,98281.94
2022-09-12T22:08:00.727Z,98284.84
2022-09-12T22:11:08.104Z,98289.19
2022-09-12T22:14:10.688Z,98283.81
2022-09-12T22:17:13.238Z,98290.84
2022-09-12T22:20:15.219Z,98278.19
2022-09-12T22:23:35.490Z,98280.28
2022-09-12T22:26:43.320Z,98272.78
2022-09-12T22:29:46.163Z,98277.81
2022-09-12T22:32:49.754Z,98273.72
2022-09-12T22:35:52.456Z,98267.13
2022-09-12T22:38:54.213Z,98266.69
2022-09-12T22:41:56.028Z,98259.88
2022-09-12T22:44:57.883Z,98258.88
2022-09-12T22:48:01.015Z,98259.94
2022-09-12T22:51:03.191Z,98254.13
2022-09-12T22:54:05.870Z,98263.25
2022-09-12T22:57:07.589Z,98261.47
2022-09-12T23:00:13.315Z,98258.13
2022-09-12T23:03:15.126Z,98257.28
2022-09-12T23:06:17.554Z,98254.84
2022-09-12T23:09:19.351Z,98265.84
2022-09-12T23:12:21.188Z,98258.41
2022-09-12T23:15:22.993Z,98256.53
2022-09-12T23:18:25.063Z,98263.59
2022-09-12T23:21:27.425Z,98265.25
2022-09-12T23:24:29.506Z,98260.06
2022-09-12T23:27:31.341Z,98249.09
2022-09-12T23:30:33.158Z,98254.91
2022-09-12T23:33:35.772Z,98240.03
2022-09-12T23:36:37.667Z,98235.69
2022-09-12T23:39:39.529Z,98231.31
2022-09-12T23:42:41.539Z,98233.22
2022-09-12T23:45:43.305Z,98230.97
2022-09-12T23:48:45.190Z,98231.66
2022-09-12T23:51:47.433Z,98221.13
2022-09-12T23:54:49.316Z,98222.19
2022-09-12T23:57:51.221Z,98209.56
